Back to Top

Language: 

My Weather Underground Personal Weather Station Historical Data with Graphs...

Delerius Weather Station Historical Data
Daily Summary for March 1, 2017 Units:  English    Metric   Both
« Previous Day
Next Day »
Daily Weekly Monthly Yearly Custom
  High: Low: Average:
Temperature: 48.0 °F 34.5 °F 40.3 °F
Dew Point: 39.5 °F 32.4 °F 36 °F
Humidity: 95 % 67 % 85 %
Wind Speed: 14.0 mph 0.0 mph 4.7 mph
Wind Gust: 22.0 mph - -
Wind:- - West
Pressure: 29.42 in 29.32 in -
Precipitation: 0.00 in    
Historical Graphs
 
 
Tabular Data for March 1, 2017
Time Temperature Dew Point Pressure Wind Wind Speed Wind Gust Humidity Rainfall Rate (Hourly) solar Conditions
00:00 37.6 °F 35.5 °F 29.32 in WNW 6.0 mph 8.0 mph 92 % 0.00 in 0 W/m2
00:05 37.6 °F 35.5 °F 29.32 in WNW 6.0 mph 8.0 mph 92 % 0.00 in 0 W/m2
00:15 37.4 °F 35.3 °F 29.32 in WNW 5.0 mph 7.0 mph 92 % 0.00 in 0 W/m2
00:25 37.2 °F 35.1 °F 29.32 in WNW 3.0 mph 5.0 mph 92 % 0.00 in 0 W/m2
00:30 37.1 °F 35.0 °F 29.33 in WNW 2.0 mph 3.0 mph 92 % 0.00 in 0 W/m2
00:35 36.9 °F 34.8 °F 29.33 in WNW 3.0 mph 3.0 mph 92 % 0.00 in 0 W/m2
00:40 36.8 °F 34.7 °F 29.33 in WNW 3.0 mph 3.0 mph 92 % 0.00 in 0 W/m2
00:45 36.8 °F 35.0 °F 29.33 in WNW 4.0 mph 6.0 mph 93 % 0.00 in 0 W/m2
00:55 36.8 °F 35.0 °F 29.32 in NW 3.0 mph 4.0 mph 93 % 0.00 in 0 W/m2
01:00 36.8 °F 35.0 °F 29.33 in WNW 3.0 mph 6.0 mph 93 % 0.00 in 0 W/m2
01:05 36.8 °F 35.0 °F 29.34 in WNW 4.0 mph 10.0 mph 93 % 0.00 in 0 W/m2
01:10 36.7 °F 34.9 °F 29.34 in WNW 5.0 mph 5.0 mph 93 % 0.00 in 0 W/m2
01:15 36.7 °F 34.9 °F 29.35 in WNW 3.0 mph 10.0 mph 93 % 0.00 in 0 W/m2
01:20 36.6 °F 34.8 °F 29.35 in WNW 4.0 mph 10.0 mph 93 % 0.00 in 0 W/m2
01:30 36.5 °F 34.7 °F 29.35 in WNW 6.0 mph 6.0 mph 93 % 0.00 in 0 W/m2
01:35 36.6 °F 34.8 °F 29.35 in WNW 5.0 mph 10.0 mph 93 % 0.00 in 0 W/m2
01:40 36.6 °F 34.8 °F 29.35 in WNW 5.0 mph 5.0 mph 93 % 0.00 in 0 W/m2
01:45 36.5 °F 34.7 °F 29.35 in WNW 4.0 mph 10.0 mph 93 % 0.00 in 0 W/m2
01:50 36.3 °F 34.5 °F 29.35 in WNW 3.0 mph 10.0 mph 93 % 0.00 in 0 W/m2
02:00 36.2 °F 34.4 °F 29.37 in WNW 3.0 mph 3.0 mph 93 % 0.00 in 0 W/m2
02:05 36.1 °F 34.0 °F 29.37 in WNW 2.0 mph 10.0 mph 92 % 0.00 in 0 W/m2
02:10 35.9 °F 33.8 °F 29.37 in Calm   10.0 mph 92 % 0.00 in 0 W/m2
02:15 35.6 °F 33.5 °F 29.37 in Calm   10.0 mph 92 % 0.00 in 0 W/m2
02:20 35.4 °F 33.3 °F 29.38 in Calm   10.0 mph 92 % 0.00 in 0 W/m2
02:30 35.2 °F 33.1 °F 29.38 in Calm   10.0 mph 92 % 0.00 in 0 W/m2
02:35 35.0 °F 33.2 °F 29.37 in Calm   10.0 mph 93 % 0.00 in 0 W/m2
02:40 34.9 °F 33.1 °F 29.37 in WNW 1.0 mph 10.0 mph 93 % 0.00 in 0 W/m2
02:50 34.8 °F 33.0 °F 29.38 in WNW 1.0 mph 1.0 mph 93 % 0.00 in 0 W/m2
02:55 34.7 °F 32.9 °F 29.37 in Calm   10.0 mph 93 % 0.00 in 0 W/m2
03:00 34.7 °F 32.9 °F 29.38 in WNW 1.0 mph 1.0 mph 93 % 0.00 in 0 W/m2
03:10 34.5 °F 32.7 °F 29.37 in WNW 1.0 mph 1.0 mph 93 % 0.00 in 0 W/m2
03:15 34.7 °F 33.2 °F 29.37 in West 1.0 mph 10.0 mph 94 % 0.00 in 0 W/m2
03:20 34.9 °F 33.3 °F 29.36 in West 1.0 mph 1.0 mph 94 % 0.00 in 0 W/m2
03:25 35.0 °F 33.4 °F 29.37 in West 1.0 mph 10.0 mph 94 % 0.00 in 0 W/m2
03:30 34.9 °F 33.3 °F 29.37 in Calm   10.0 mph 94 % 0.00 in 0 W/m2
03:40 34.7 °F 32.9 °F 29.38 in Calm   10.0 mph 93 % 0.00 in 0 W/m2
03:45 34.9 °F 33.3 °F 29.39 in SSW 2.0 mph 10.0 mph 94 % 0.00 in 0 W/m2
03:50 35.3 °F 33.7 °F 29.39 in SSW 3.0 mph 10.0 mph 94 % 0.00 in 0 W/m2
03:55 35.9 °F 34.6 °F 29.39 in SSW 5.0 mph 10.0 mph 95 % 0.00 in 0 W/m2
04:00 36.2 °F 34.6 °F 29.39 in West 5.0 mph 5.0 mph 94 % 0.00 in 0 W/m2
04:05 36.1 °F 34.3 °F 29.39 in West 3.0 mph 10.0 mph 93 % 0.00 in 0 W/m2
04:15 36.3 °F 34.5 °F 29.39 in West 3.0 mph 10.0 mph 93 % 0.00 in 0 W/m2
04:20 36.3 °F 34.5 °F 29.39 in WSW 3.0 mph 10.0 mph 93 % 0.00 in 0 W/m2
04:25 36.3 °F 34.5 °F 29.39 in WSW 2.0 mph 10.0 mph 93 % 0.00 in 0 W/m2
04:30 36.3 °F 34.5 °F 29.39 in WSW 1.0 mph 10.0 mph 93 % 0.00 in 0 W/m2
04:35 36.3 °F 34.5 °F 29.39 in SSW 1.0 mph 10.0 mph 93 % 0.00 in 0 W/m2
04:45 36.6 °F 34.8 °F 29.39 in SW 2.0 mph 10.0 mph 93 % 0.00 in 0 W/m2
04:50 36.8 °F 35.0 °F 29.39 in WSW 3.0 mph 10.0 mph 93 % 0.00 in 0 W/m2
04:55 37.1 °F 35.3 °F 29.39 in SW 4.0 mph 10.0 mph 93 % 0.00 in 0 W/m2
05:00 37.1 °F 35.0 °F 29.39 in SW 3.0 mph 3.0 mph 92 % 0.00 in 0 W/m2
05:05 37.0 °F 34.9 °F 29.39 in SW 3.0 mph 5.0 mph 92 % 0.00 in 0 W/m2
05:10 36.9 °F 34.8 °F 29.39 in SW 3.0 mph 3.0 mph 92 % 0.00 in 0 W/m2
05:20 36.7 °F 34.6 °F 29.39 in WNW 4.0 mph 10.0 mph 92 % 0.00 in 0 W/m2
05:25 36.7 °F 34.6 °F 29.39 in WNW 4.0 mph 10.0 mph 92 % 0.00 in 0 W/m2
05:30 36.5 °F 34.4 °F 29.39 in WNW 4.0 mph 10.0 mph 92 % 0.00 in 0 W/m2
05:35 36.4 °F 34.3 °F 29.39 in West 5.0 mph 10.0 mph 92 % 0.00 in 0 W/m2
05:40 36.5 °F 34.4 °F 29.39 in West 6.0 mph 10.0 mph 92 % 0.00 in 0 W/m2
05:50 37.2 °F 35.1 °F 29.40 in West 7.0 mph 10.0 mph 92 % 0.00 in 0 W/m2
05:55 37.3 °F 35.2 °F 29.40 in WSW 7.0 mph 10.0 mph 92 % 0.00 in 0 W/m2
06:00 37.5 °F 35.4 °F 29.40 in WNW 8.0 mph 12.0 mph 92 % 0.00 in 0 W/m2
06:05 37.7 °F 35.6 °F 29.40 in West 10.0 mph 12.0 mph 92 % 0.00 in 0 W/m2
06:10 37.8 °F 35.4 °F 29.40 in WSW 10.0 mph 10.0 mph 91 % 0.00 in 0 W/m2
06:20 37.7 °F 35.3 °F 29.40 in WNW 8.0 mph 10.0 mph 91 % 0.00 in 0 W/m2
06:25 37.7 °F 35.6 °F 29.40 in West 9.0 mph 11.0 mph 92 % 0.00 in 0 W/m2
06:35 37.5 °F 35.4 °F 29.40 in West 10.0 mph 10.0 mph 92 % 0.00 in 0 W/m2
06:40 37.5 °F 35.4 °F 29.40 in West 9.0 mph 9.0 mph 92 % 0.00 in 0 W/m2
06:45 37.6 °F 35.5 °F 29.40 in West 9.0 mph 10.0 mph 92 % 0.00 in 0 W/m2
06:50 37.6 °F 35.5 °F 29.40 in West 9.0 mph 10.0 mph 92 % 0.00 in 0 W/m2
07:00 37.6 °F 35.5 °F 29.41 in West 8.0 mph 13.0 mph 92 % 0.00 in 7 W/m2
07:05 37.5 °F 35.4 °F 29.41 in West 8.0 mph 13.0 mph 92 % 0.00 in 11 W/m2
07:10 37.5 °F 35.4 °F 29.41 in West 8.0 mph 8.0 mph 92 % 0.00 in 18 W/m2
07:15 37.4 °F 35.3 °F 29.41 in WSW 5.0 mph 10.0 mph 92 % 0.00 in 21 W/m2
07:20 37.3 °F 35.2 °F 29.41 in WSW 2.0 mph 2.0 mph 92 % 0.00 in 40 W/m2
07:30 37.2 °F 35.1 °F 29.41 in Calm   10.0 mph 92 % 0.00 in 90 W/m2
07:35 37.5 °F 35.4 °F 29.41 in Calm   10.0 mph 92 % 0.00 in 97 W/m2
07:40 37.8 °F 35.7 °F 29.41 in WSW 1.0 mph 10.0 mph 92 % 0.00 in 70 W/m2
07:45 38.0 °F 35.6 °F 29.41 in WSW 2.0 mph 10.0 mph 91 % 0.00 in 74 W/m2
07:50 38.1 °F 35.7 °F 29.41 in WSW 2.0 mph 10.0 mph 91 % 0.00 in 58 W/m2
07:55 38.2 °F 35.8 °F 29.40 in WSW 2.0 mph 10.0 mph 91 % 0.00 in 120 W/m2
08:05 38.6 °F 35.9 °F 29.41 in WSW 2.0 mph 10.0 mph 90 % 0.00 in 54 W/m2
08:10 38.7 °F 36.0 °F 29.41 in WSW 2.0 mph 2.0 mph 90 % 0.00 in 60 W/m2
08:15 38.8 °F 35.8 °F 29.41 in WSW 2.0 mph 10.0 mph 89 % 0.00 in 65 W/m2
08:25 38.8 °F 35.8 °F 29.41 in SW 2.0 mph 10.0 mph 89 % 0.00 in 74 W/m2
08:30 38.9 °F 35.9 °F 29.41 in SW 2.0 mph 10.0 mph 89 % 0.00 in 74 W/m2
08:40 39.1 °F 36.1 °F 29.41 in WSW 3.0 mph 10.0 mph 89 % 0.00 in 72 W/m2
08:45 39.2 °F 36.2 °F 29.41 in SW 2.0 mph 10.0 mph 89 % 0.00 in 91 W/m2
08:50 39.3 °F 36.3 °F 29.42 in West 3.0 mph 10.0 mph 89 % 0.00 in 102 W/m2
08:55 39.5 °F 36.2 °F 29.41 in SW 4.0 mph 10.0 mph 88 % 0.00 in 104 W/m2
09:05 39.9 °F 36.6 °F 29.41 in SW 3.0 mph 10.0 mph 88 % 0.00 in 121 W/m2
09:15 40.3 °F 37.0 °F 29.41 in Calm   10.0 mph 88 % 0.00 in 155 W/m2
09:20 40.6 °F 37.3 °F 29.41 in Calm   10.0 mph 88 % 0.00 in 146 W/m2
09:25 40.8 °F 37.2 °F 29.41 in SW 1.0 mph 10.0 mph 87 % 0.00 in 139 W/m2
09:30 41.0 °F 37.4 °F 29.41 in SW 1.0 mph 1.0 mph 87 % 0.00 in 134 W/m2
09:35 41.2 °F 37.3 °F 29.41 in SW 1.0 mph 3.0 mph 86 % 0.00 in 183 W/m2
09:45 41.6 °F 37.4 °F 29.41 in Calm   10.0 mph 85 % 0.00 in 162 W/m2
09:50 41.9 °F 37.7 °F 29.42 in Calm   10.0 mph 85 % 0.00 in 162 W/m2
09:55 42.1 °F 37.9 °F 29.41 in SSW 1.0 mph 10.0 mph 85 % 0.00 in 176 W/m2
10:00 42.3 °F 38.1 °F 29.42 in WSW 3.0 mph 10.0 mph 85 % 0.00 in 206 W/m2
10:05 42.6 °F 38.4 °F 29.42 in West 5.0 mph 10.0 mph 85 % 0.00 in 223 W/m2
10:10 42.9 °F 38.7 °F 29.41 in WSW 5.0 mph 10.0 mph 85 % 0.00 in 237 W/m2
10:20 43.3 °F 38.5 °F 29.42 in West 8.0 mph 8.0 mph 83 % 0.00 in 239 W/m2
10:25 43.4 °F 38.6 °F 29.42 in West 6.0 mph 10.0 mph 83 % 0.00 in 214 W/m2
10:30 43.6 °F 38.8 °F 29.42 in WSW 7.0 mph 11.0 mph 83 % 0.00 in 225 W/m2
10:40 43.8 °F 39.0 °F 29.41 in West 8.0 mph 11.0 mph 83 % 0.00 in 272 W/m2
10:45 43.9 °F 38.8 °F 29.41 in WSW 8.0 mph 11.0 mph 82 % 0.00 in 283 W/m2
10:55 44.3 °F 38.5 °F 29.41 in West 11.0 mph 13.0 mph 80 % 0.00 in 283 W/m2
11:00 44.5 °F 38.7 °F 29.41 in WSW 11.0 mph 22.0 mph 80 % 0.00 in 241 W/m2
11:05 44.4 °F 38.0 °F 29.41 in West 13.0 mph 22.0 mph 78 % 0.00 in 274 W/m2
11:10 44.5 °F 38.4 °F 29.41 in West 12.0 mph 18.0 mph 79 % 0.00 in 311 W/m2
11:15 44.6 °F 38.5 °F 29.41 in WNW 11.0 mph 18.0 mph 79 % 0.00 in 295 W/m2
11:25 45.0 °F 38.6 °F 29.40 in West 10.0 mph 12.0 mph 78 % 0.00 in 390 W/m2
11:30 45.4 °F 38.3 °F 29.41 in WSW 11.0 mph 11.0 mph 76 % 0.00 in 381 W/m2
11:35 45.6 °F 38.5 °F 29.40 in WNW 11.0 mph 11.0 mph 76 % 0.00 in 378 W/m2
11:40 45.8 °F 38.3 °F 29.40 in West 11.0 mph 12.0 mph 75 % 0.00 in 338 W/m2
11:45 45.8 °F 38.0 °F 29.40 in West 12.0 mph 12.0 mph 74 % 0.00 in 250 W/m2
11:50 45.4 °F 37.9 °F 29.40 in WSW 13.0 mph 18.0 mph 75 % 0.00 in 221 W/m2
12:00 44.9 °F 38.1 °F 29.40 in WSW 12.0 mph 12.0 mph 77 % 0.00 in 260 W/m2
12:05 44.9 °F 38.1 °F 29.40 in SW 10.0 mph 14.0 mph 77 % 0.00 in 241 W/m2
12:15 45.2 °F 38.1 °F 29.40 in West 12.0 mph 20.0 mph 76 % 0.00 in 316 W/m2
12:20 45.5 °F 38.0 °F 29.40 in West 12.0 mph 13.0 mph 75 % 0.00 in 332 W/m2
12:25 45.7 °F 38.6 °F 29.40 in West 11.0 mph 13.0 mph 76 % 0.00 in 462 W/m2
12:35 46.2 °F 38.7 °F 29.39 in WNW 10.0 mph 11.0 mph 75 % 0.00 in 257 W/m2
12:40 46.2 °F 39.1 °F 29.39 in WSW 9.0 mph 10.0 mph 76 % 0.00 in 232 W/m2
12:45 46.3 °F 38.8 °F 29.39 in WSW 10.0 mph 11.0 mph 75 % 0.00 in 264 W/m2
12:50 46.6 °F 39.1 °F 29.40 in West 10.0 mph 10.0 mph 75 % 0.00 in 552 W/m2
12:55 47.0 °F 39.5 °F 29.39 in West 10.0 mph 10.0 mph 75 % 0.00 in 598 W/m2
13:05 47.1 °F 38.9 °F 29.39 in SW 10.0 mph 11.0 mph 73 % 0.00 in 204 W/m2
13:10 47.1 °F 38.9 °F 29.39 in West 11.0 mph 12.0 mph 73 % 0.00 in 624 W/m2
13:15 47.5 °F 38.6 °F 29.39 in SW 13.0 mph 13.0 mph 71 % 0.00 in 624 W/m2
13:20 47.9 °F 38.9 °F 29.39 in West 14.0 mph 14.0 mph 71 % 0.00 in 700 W/m2
13:25 48.0 °F 38.7 °F 29.39 in West 12.0 mph 15.0 mph 70 % 0.00 in 185 W/m2
13:35 47.1 °F 38.2 °F 29.39 in West 12.0 mph 16.0 mph 71 % 0.00 in 171 W/m2
13:40 47.0 °F 38.1 °F 29.39 in West 10.0 mph 11.0 mph 71 % 0.00 in 174 W/m2
13:50 46.4 °F 38.9 °F 29.40 in West 14.0 mph 14.0 mph 75 % 0.00 in 88 W/m2
13:55 45.3 °F 38.8 °F 29.39 in WSW 14.0 mph 14.0 mph 78 % 0.00 in 107 W/m2
14:00 44.4 °F 38.6 °F 29.39 in WSW 12.0 mph 12.0 mph 80 % 0.00 in 155 W/m2
14:05 44.1 °F 38.6 °F 29.39 in WSW 9.0 mph 12.0 mph 81 % 0.00 in 114 W/m2
14:15 44.1 °F 38.6 °F 29.38 in West 8.0 mph 11.0 mph 81 % 0.00 in 320 W/m2
14:20 44.5 °F 38.4 °F 29.38 in SW 9.0 mph 9.0 mph 79 % 0.00 in 127 W/m2
14:25 44.7 °F 38.6 °F 29.38 in West 9.0 mph 10.0 mph 79 % 0.00 in 165 W/m2
14:30 44.8 °F 38.4 °F 29.38 in SW 8.0 mph 8.0 mph 78 % 0.00 in 174 W/m2
14:35 45.0 °F 38.6 °F 29.38 in WSW 8.0 mph 10.0 mph 78 % 0.00 in 148 W/m2
14:45 45.3 °F 38.5 °F 29.38 in West 8.0 mph 10.0 mph 77 % 0.00 in 88 W/m2
14:50 45.3 °F 38.2 °F 29.38 in WSW 8.0 mph 8.0 mph 76 % 0.00 in 77 W/m2
14:55 45.2 °F 37.7 °F 29.38 in WSW 9.0 mph 9.0 mph 75 % 0.00 in 91 W/m2
15:00 45.2 °F 37.7 °F 29.38 in West 8.0 mph 8.0 mph 75 % 0.00 in 76 W/m2
15:05 45.2 °F 37.7 °F 29.38 in WNW 7.0 mph 10.0 mph 75 % 0.00 in 98 W/m2
15:15 45.7 °F 38.2 °F 29.38 in WSW 6.0 mph 10.0 mph 75 % 0.00 in 190 W/m2
15:20 46.1 °F 37.6 °F 29.38 in West 7.0 mph 13.0 mph 72 % 0.00 in 320 W/m2
15:30 46.4 °F 37.5 °F 29.37 in WSW 8.0 mph 10.0 mph 71 % 0.00 in 107 W/m2
15:35 46.4 °F 37.9 °F 29.37 in WSW 7.0 mph 13.0 mph 72 % 0.00 in 178 W/m2
15:40 46.6 °F 37.7 °F 29.37 in WSW 7.0 mph 7.0 mph 71 % 0.00 in 243 W/m2
15:45 46.8 °F 36.8 °F 29.37 in WSW 9.0 mph 9.0 mph 68 % 0.00 in 118 W/m2
15:55 46.4 °F 36.0 °F 29.37 in WSW 10.0 mph 10.0 mph 67 % 0.00 in 81 W/m2
16:00 46.2 °F 36.6 °F 29.37 in SW 9.0 mph 10.0 mph 69 % 0.00 in 113 W/m2
16:05 46.1 °F 36.5 °F 29.37 in West 8.0 mph 10.0 mph 69 % 0.00 in 102 W/m2
16:10 46.0 °F 36.8 °F 29.37 in West 7.0 mph 10.0 mph 70 % 0.00 in 120 W/m2
16:15 46.1 °F 36.9 °F 29.37 in WSW 6.0 mph 10.0 mph 70 % 0.00 in 130 W/m2
16:25 46.3 °F 36.7 °F 29.36 in WNW 9.0 mph 13.0 mph 69 % 0.00 in 88 W/m2
16:30 46.2 °F 37.0 °F 29.36 in West 9.0 mph 9.0 mph 70 % 0.00 in 83 W/m2
16:35 46.1 °F 36.9 °F 29.36 in West 8.0 mph 10.0 mph 70 % 0.00 in 84 W/m2
16:40 46.1 °F 37.2 °F 29.36 in WNW 7.0 mph 7.0 mph 71 % 0.00 in 84 W/m2
16:45 46.0 °F 37.1 °F 29.36 in West 6.0 mph 10.0 mph 71 % 0.00 in 76 W/m2
16:55 45.9 °F 37.4 °F 29.36 in West 5.0 mph 10.0 mph 72 % 0.00 in 76 W/m2
17:05 45.7 °F 37.5 °F 29.37 in WNW 5.0 mph 10.0 mph 73 % 0.00 in 32 W/m2
17:10 45.4 °F 36.9 °F 29.37 in WSW 7.0 mph 7.0 mph 72 % 0.00 in 25 W/m2
17:15 45.2 °F 37.1 °F 29.37 in West 7.0 mph 10.0 mph 73 % 0.00 in 19 W/m2
17:20 45.0 °F 36.9 °F 29.37 in West 5.0 mph 10.0 mph 73 % 0.00 in 18 W/m2
17:25 44.8 °F 37.0 °F 29.37 in West 4.0 mph 10.0 mph 74 % 0.00 in 14 W/m2
17:30 44.6 °F 37.2 °F 29.37 in West 4.0 mph 10.0 mph 75 % 0.00 in 11 W/m2
17:35 44.4 °F 37.0 °F 29.37 in WNW 4.0 mph 10.0 mph 75 % 0.00 in 9 W/m2
17:40 44.1 °F 36.7 °F 29.37 in WNW 5.0 mph 10.0 mph 75 % 0.00 in 5 W/m2
17:45 43.8 °F 36.7 °F 29.37 in West 6.0 mph 10.0 mph 76 % 0.00 in 0 W/m2
17:50 43.7 °F 36.6 °F 29.37 in WSW 6.0 mph 6.0 mph 76 % 0.00 in 0 W/m2
17:55 43.5 °F 36.4 °F 29.37 in West 6.0 mph 10.0 mph 76 % 0.00 in 0 W/m2
18:05 43.2 °F 36.5 °F 29.37 in WSW 4.0 mph 10.0 mph 77 % 0.00 in 0 W/m2
18:10 43.0 °F 36.3 °F 29.38 in West 4.0 mph 4.0 mph 77 % 0.00 in 0 W/m2
18:15 42.9 °F 36.2 °F 29.37 in West 3.0 mph 5.0 mph 77 % 0.00 in 0 W/m2
18:25 42.6 °F 36.2 °F 29.37 in West 3.0 mph 10.0 mph 78 % 0.00 in 0 W/m2
18:30 42.5 °F 36.1 °F 29.37 in West 3.0 mph 3.0 mph 78 % 0.00 in 0 W/m2
18:40 42.2 °F 35.8 °F 29.37 in West 1.0 mph 1.0 mph 78 % 0.00 in 0 W/m2
18:45 42.1 °F 36.1 °F 29.37 in Calm   10.0 mph 79 % 0.00 in 0 W/m2
18:50 41.9 °F 35.9 °F 29.37 in Calm   10.0 mph 79 % 0.00 in 0 W/m2
18:55 41.7 °F 35.3 °F 29.37 in Calm   10.0 mph 78 % 0.00 in 0 W/m2
19:00 41.4 °F 35.4 °F 29.36 in Calm   10.0 mph 79 % 0.00 in 0 W/m2
19:05 41.1 °F 35.1 °F 29.36 in Calm   10.0 mph 79 % 0.00 in 0 W/m2
19:10 40.8 °F 35.1 °F 29.36 in Calm   10.0 mph 80 % 0.00 in 0 W/m2
19:15 40.5 °F 34.8 °F 29.36 in Calm   10.0 mph 80 % 0.00 in 0 W/m2
19:20 40.1 °F 34.7 °F 29.37 in Calm   10.0 mph 81 % 0.00 in 0 W/m2
19:25 39.7 °F 34.7 °F 29.36 in Calm   10.0 mph 82 % 0.00 in 0 W/m2
19:30 39.4 °F 34.4 °F 29.36 in Calm   10.0 mph 82 % 0.00 in 0 W/m2
19:40 38.9 °F 34.2 °F 29.36 in Calm   10.0 mph 83 % 0.00 in 0 W/m2
19:45 38.7 °F 34.3 °F 29.36 in Calm   10.0 mph 84 % 0.00 in 0 W/m2
19:55 38.3 °F 34.2 °F 29.36 in Calm   10.0 mph 85 % 0.00 in 0 W/m2
20:00 38.1 °F 34.0 °F 29.36 in Calm   10.0 mph 85 % 0.00 in 0 W/m2
20:05 37.9 °F 33.8 °F 29.36 in Calm   10.0 mph 85 % 0.00 in 0 W/m2
20:10 37.8 °F 34.0 °F 29.36 in Calm   10.0 mph 86 % 0.00 in 0 W/m2
20:20 37.6 °F 33.8 °F 29.35 in Calm   10.0 mph 86 % 0.00 in 0 W/m2
20:25 37.5 °F 33.7 °F 29.35 in Calm   10.0 mph 86 % 0.00 in 0 W/m2
20:30 37.4 °F 33.6 °F 29.35 in Calm   10.0 mph 86 % 0.00 in 0 W/m2
20:35 37.3 °F 33.5 °F 29.35 in Calm   10.0 mph 86 % 0.00 in 0 W/m2
20:40 37.2 °F 33.4 °F 29.35 in Calm   10.0 mph 86 % 0.00 in 0 W/m2
20:45 37.1 °F 33.6 °F 29.35 in Calm   10.0 mph 87 % 0.00 in 0 W/m2
20:55 36.8 °F 33.3 °F 29.35 in Calm   10.0 mph 87 % 0.00 in 0 W/m2
21:00 36.5 °F 32.7 °F 29.35 in Calm   10.0 mph 86 % 0.00 in 0 W/m2
21:05 36.2 °F 32.7 °F 29.35 in Calm   10.0 mph 87 % 0.00 in 0 W/m2
21:10 35.9 °F 32.4 °F 29.35 in Calm   10.0 mph 87 % 0.00 in 0 W/m2
21:20 35.7 °F 32.5 °F 29.35 in West 1.0 mph 1.0 mph 88 % 0.00 in 0 W/m2
21:30 35.7 °F 32.8 °F 29.35 in Calm   10.0 mph 89 % 0.00 in 0 W/m2
21:35 35.7 °F 32.8 °F 29.35 in West 1.0 mph 10.0 mph 89 % 0.00 in 0 W/m2
21:40 35.8 °F 33.2 °F 29.35 in WSW 2.0 mph 10.0 mph 90 % 0.00 in 0 W/m2
21:45 36.3 °F 33.6 °F 29.35 in SW 4.0 mph 10.0 mph 90 % 0.00 in 0 W/m2
21:50 36.7 °F 34.0 °F 29.35 in SW 3.0 mph 3.0 mph 90 % 0.00 in 0 W/m2
22:00 37.3 °F 34.6 °F 29.34 in SW 2.0 mph 10.0 mph 90 % 0.00 in 0 W/m2
22:05 37.8 °F 35.1 °F 29.34 in WSW 4.0 mph 10.0 mph 90 % 0.00 in 0 W/m2
22:10 38.2 °F 35.2 °F 29.34 in SW 4.0 mph 4.0 mph 89 % 0.00 in 0 W/m2
22:15 38.4 °F 35.4 °F 29.34 in WSW 3.0 mph 6.0 mph 89 % 0.00 in 0 W/m2
22:20 38.6 °F 35.6 °F 29.34 in WSW 2.0 mph 10.0 mph 89 % 0.00 in 0 W/m2
22:25 38.7 °F 35.7 °F 29.34 in WSW 2.0 mph 10.0 mph 89 % 0.00 in 0 W/m2
22:35 38.8 °F 35.8 °F 29.33 in WSW 1.0 mph 2.0 mph 89 % 0.00 in 0 W/m2
22:40 38.9 °F 35.9 °F 29.33 in WSW 2.0 mph 10.0 mph 89 % 0.00 in 0 W/m2
22:50 38.9 °F 35.9 °F 29.33 in WSW 2.0 mph 2.0 mph 89 % 0.00 in 0 W/m2
22:55 39.0 °F 36.0 °F 29.33 in WNW 2.0 mph 4.0 mph 89 % 0.00 in 0 W/m2
23:00 39.1 °F 36.1 °F 29.34 in WNW 4.0 mph 10.0 mph 89 % 0.00 in 0 W/m2
23:10 39.1 °F 36.4 °F 29.34 in West 5.0 mph 10.0 mph 90 % 0.00 in 0 W/m2
23:15 39.1 °F 36.4 °F 29.34 in West 5.0 mph 10.0 mph 90 % 0.00 in 0 W/m2
23:20 39.1 °F 36.4 °F 29.34 in West 3.0 mph 10.0 mph 90 % 0.00 in 0 W/m2
23:25 39.0 °F 36.3 °F 29.34 in West 3.0 mph 10.0 mph 90 % 0.00 in 0 W/m2
23:30 39.0 °F 36.6 °F 29.34 in WSW 3.0 mph 10.0 mph 91 % 0.00 in 0 W/m2
23:40 38.9 °F 36.5 °F 29.33 in WSW 5.0 mph 5.0 mph 91 % 0.00 in 0 W/m2
23:45 38.8 °F 36.4 °F 29.33 in West 5.0 mph 7.0 mph 91 % 0.00 in 0 W/m2
23:50 38.8 °F 36.4 °F 29.34 in WNW 6.0 mph 10.0 mph 91 % 0.00 in 0 W/m2
23:55 38.7 °F 36.3 °F 29.34 in WSW 8.0 mph 10.0 mph 91 % 0.00 in 0 W/m2
Delerius-Weather
Compliments of Weather Underground - 2 mb

Data updates at regular intervals.